sensor_id;sensor_type;location;lat;lon;timestamp;P1;durP1;ratioP1;P2;durP2;ratioP2
21543;SDS011;10933;50.754;11.508;2023-09-18T00:00:51;5.90;;;5.50;;
21543;SDS011;10933;50.754;11.508;2023-09-18T00:03:18;5.47;;;5.18;;
21543;SDS011;10933;50.754;11.508;2023-09-18T00:05:48;6.53;;;5.90;;
21543;SDS011;10933;50.754;11.508;2023-09-18T00:08:16;6.65;;;6.25;;
21543;SDS011;10933;50.754;11.508;2023-09-18T00:10:43;5.80;;;5.50;;
21543;SDS011;10933;50.754;11.508;2023-09-18T00:13:16;6.05;;;5.60;;
21543;SDS011;10933;50.754;11.508;2023-09-18T00:15:42;6.18;;;5.88;;
21543;SDS011;10933;50.754;11.508;2023-09-18T00:18:11;6.22;;;5.93;;
21543;SDS011;10933;50.754;11.508;2023-09-18T00:20:41;5.75;;;5.45;;
21543;SDS011;10933;50.754;11.508;2023-09-18T00:23:08;5.85;;;5.55;;
21543;SDS011;10933;50.754;11.508;2023-09-18T00:25:35;6.45;;;6.05;;
21543;SDS011;10933;50.754;11.508;2023-09-18T00:28:02;6.10;;;5.80;;
21543;SDS011;10933;50.754;11.508;2023-09-18T00:30:28;6.50;;;6.00;;
21543;SDS011;10933;50.754;11.508;2023-09-18T00:32:54;5.68;;;5.38;;
21543;SDS011;10933;50.754;11.508;2023-09-18T00:35:20;6.95;;;5.65;;
21543;SDS011;10933;50.754;11.508;2023-09-18T00:37:48;5.78;;;5.40;;
21543;SDS011;10933;50.754;11.508;2023-09-18T00:40:14;6.47;;;6.15;;
21543;SDS011;10933;50.754;11.508;2023-09-18T00:42:40;5.97;;;5.68;;
21543;SDS011;10933;50.754;11.508;2023-09-18T00:45:06;6.22;;;5.93;;
21543;SDS011;10933;50.754;11.508;2023-09-18T00:47:34;6.00;;;5.70;;
21543;SDS011;10933;50.754;11.508;2023-09-18T00:50:01;6.22;;;5.78;;
21543;SDS011;10933;50.754;11.508;2023-09-18T00:52:28;6.25;;;5.95;;
21543;SDS011;10933;50.754;11.508;2023-09-18T00:54:56;6.28;;;5.97;;
21543;SDS011;10933;50.754;11.508;2023-09-18T00:57:22;6.00;;;5.70;;
21543;SDS011;10933;50.754;11.508;2023-09-18T00:59:49;6.65;;;6.28;;
21543;SDS011;10933;50.754;11.508;2023-09-18T01:02:15;6.78;;;6.35;;
21543;SDS011;10933;50.754;11.508;2023-09-18T01:04:41;6.90;;;6.53;;
21543;SDS011;10933;50.754;11.508;2023-09-18T01:07:09;7.20;;;6.80;;
21543;SDS011;10933;50.754;11.508;2023-09-18T01:09:35;6.40;;;6.10;;
21543;SDS011;10933;50.754;11.508;2023-09-18T01:15:01;7.25;;;6.72;;
21543;SDS011;10933;50.754;11.508;2023-09-18T01:17:40;6.57;;;6.28;;
21543;SDS011;10933;50.754;11.508;2023-09-18T01:20:10;6.47;;;6.07;;
21543;SDS011;10933;50.754;11.508;2023-09-18T01:22:37;6.75;;;6.45;;
21543;SDS011;10933;50.754;11.508;2023-09-18T01:25:03;7.03;;;6.53;;
21543;SDS011;10933;50.754;11.508;2023-09-18T01:27:31;6.15;;;5.65;;
21543;SDS011;10933;50.754;11.508;2023-09-18T01:29:57;6.45;;;5.88;;
21543;SDS011;10933;50.754;11.508;2023-09-18T01:32:24;6.63;;;6.20;;
21543;SDS011;10933;50.754;11.508;2023-09-18T01:34:54;6.75;;;6.35;;
21543;SDS011;10933;50.754;11.508;2023-09-18T01:37:23;7.68;;;7.18;;
21543;SDS011;10933;50.754;11.508;2023-09-18T01:39:51;7.82;;;7.40;;
21543;SDS011;10933;50.754;11.508;2023-09-18T01:42:18;7.00;;;6.70;;
21543;SDS011;10933;50.754;11.508;2023-09-18T01:44:45;6.68;;;6.18;;
21543;SDS011;10933;50.754;11.508;2023-09-18T01:47:13;6.60;;;6.15;;
21543;SDS011;10933;50.754;11.508;2023-09-18T01:49:44;7.38;;;6.38;;
21543;SDS011;10933;50.754;11.508;2023-09-18T01:52:11;6.93;;;6.53;;
21543;SDS011;10933;50.754;11.508;2023-09-18T01:54:37;6.72;;;6.32;;
21543;SDS011;10933;50.754;11.508;2023-09-18T01:57:04;6.50;;;6.10;;
21543;SDS011;10933;50.754;11.508;2023-09-18T01:59:32;6.85;;;6.45;;
21543;SDS011;10933;50.754;11.508;2023-09-18T02:01:58;6.88;;;6.47;;
21543;SDS011;10933;50.754;11.508;2023-09-18T02:04:25;6.78;;;6.38;;
21543;SDS011;10933;50.754;11.508;2023-09-18T02:06:52;6.68;;;6.28;;
21543;SDS011;10933;50.754;11.508;2023-09-18T02:09:18;6.35;;;6.05;;
21543;SDS011;10933;50.754;11.508;2023-09-18T02:11:45;6.55;;;6.25;;
21543;SDS011;10933;50.754;11.508;2023-09-18T02:14:12;6.03;;;5.68;;
21543;SDS011;10933;50.754;11.508;2023-09-18T02:16:39;5.72;;;5.50;;
21543;SDS011;10933;50.754;11.508;2023-09-18T02:19:06;6.07;;;5.53;;
21543;SDS011;10933;50.754;11.508;2023-09-18T02:21:33;6.13;;;5.70;;
21543;SDS011;10933;50.754;11.508;2023-09-18T02:24:00;6.82;;;5.53;;
21543;SDS011;10933;50.754;11.508;2023-09-18T02:26:27;5.90;;;5.43;;
21543;SDS011;10933;50.754;11.508;2023-09-18T02:28:54;6.60;;;5.45;;
21543;SDS011;10933;50.754;11.508;2023-09-18T02:31:23;5.97;;;5.68;;
21543;SDS011;10933;50.754;11.508;2023-09-18T02:33:49;5.78;;;5.47;;
21543;SDS011;10933;50.754;11.508;2023-09-18T02:36:15;5.80;;;5.50;;
21543;SDS011;10933;50.754;11.508;2023-09-18T02:38:41;5.40;;;4.97;;
21543;SDS011;10933;50.754;11.508;2023-09-18T02:41:08;5.85;;;5.55;;
21543;SDS011;10933;50.754;11.508;2023-09-18T02:43:34;6.10;;;5.80;;
21543;SDS011;10933;50.754;11.508;2023-09-18T02:46:03;6.13;;;5.63;;
21543;SDS011;10933;50.754;11.508;2023-09-18T02:48:30;6.57;;;6.18;;
21543;SDS011;10933;50.754;11.508;2023-09-18T02:50:58;6.63;;;6.00;;
21543;SDS011;10933;50.754;11.508;2023-09-18T02:53:25;6.60;;;6.20;;
21543;SDS011;10933;50.754;11.508;2023-09-18T02:55:52;6.72;;;6.43;;
21543;SDS011;10933;50.754;11.508;2023-09-18T02:58:19;6.00;;;5.68;;
21543;SDS011;10933;50.754;11.508;2023-09-18T03:00:49;7.32;;;6.10;;
21543;SDS011;10933;50.754;11.508;2023-09-18T03:03:16;6.70;;;6.28;;
21543;SDS011;10933;50.754;11.508;2023-09-18T03:05:43;6.20;;;5.90;;
21543;SDS011;10933;50.754;11.508;2023-09-18T03:08:13;6.90;;;6.50;;
21543;SDS011;10933;50.754;11.508;2023-09-18T03:10:41;6.07;;;5.70;;
21543;SDS011;10933;50.754;11.508;2023-09-18T03:13:09;5.90;;;5.60;;
21543;SDS011;10933;50.754;11.508;2023-09-18T03:15:36;5.90;;;5.50;;
21543;SDS011;10933;50.754;11.508;2023-09-18T03:18:03;6.35;;;6.00;;
21543;SDS011;10933;50.754;11.508;2023-09-18T03:20:30;6.00;;;5.70;;
21543;SDS011;10933;50.754;11.508;2023-09-18T03:22:58;6.28;;;5.90;;
21543;SDS011;10933;50.754;11.508;2023-09-18T03:25:26;6.95;;;6.30;;
21543;SDS011;10933;50.754;11.508;2023-09-18T03:27:53;6.90;;;6.50;;
21543;SDS011;10933;50.754;11.508;2023-09-18T03:30:21;8.10;;;7.38;;
21543;SDS011;10933;50.754;11.508;2023-09-18T03:32:48;7.07;;;6.57;;
21543;SDS011;10933;50.754;11.508;2023-09-18T03:35:15;7.32;;;6.82;;
21543;SDS011;10933;50.754;11.508;2023-09-18T03:37:45;7.07;;;6.68;;
21543;SDS011;10933;50.754;11.508;2023-09-18T03:40:12;7.18;;;6.60;;
21543;SDS011;10933;50.754;11.508;2023-09-18T03:42:39;7.78;;;7.07;;
21543;SDS011;10933;50.754;11.508;2023-09-18T03:45:05;7.78;;;7.28;;
21543;SDS011;10933;50.754;11.508;2023-09-18T03:47:36;8.25;;;7.63;;
21543;SDS011;10933;50.754;11.508;2023-09-18T03:50:09;7.60;;;7.20;;
21543;SDS011;10933;50.754;11.508;2023-09-18T03:52:36;6.75;;;6.35;;
21543;SDS011;10933;50.754;11.508;2023-09-18T03:55:04;7.20;;;6.80;;
21543;SDS011;10933;50.754;11.508;2023-09-18T03:57:30;7.00;;;6.40;;
21543;SDS011;10933;50.754;11.508;2023-09-18T03:59:57;7.43;;;6.90;;
21543;SDS011;10933;50.754;11.508;2023-09-18T04:02:24;7.22;;;6.70;;
21543;SDS011;10933;50.754;11.508;2023-09-18T04:04:51;7.03;;;6.63;;
21543;SDS011;10933;50.754;11.508;2023-09-18T04:07:19;6.57;;;6.18;;
21543;SDS011;10933;50.754;11.508;2023-09-18T04:09:46;7.13;;;6.70;;
21543;SDS011;10933;50.754;11.508;2023-09-18T04:12:12;6.63;;;6.30;;
21543;SDS011;10933;50.754;11.508;2023-09-18T04:14:38;7.22;;;6.82;;
21543;SDS011;10933;50.754;11.508;2023-09-18T04:17:04;6.95;;;6.55;;
21543;SDS011;10933;50.754;11.508;2023-09-18T04:19:30;7.47;;;6.97;;
21543;SDS011;10933;50.754;11.508;2023-09-18T04:21:57;6.97;;;6.57;;
21543;SDS011;10933;50.754;11.508;2023-09-18T04:24:23;6.40;;;6.10;;
21543;SDS011;10933;50.754;11.508;2023-09-18T04:26:50;7.75;;;7.35;;
21543;SDS011;10933;50.754;11.508;2023-09-18T04:29:16;7.05;;;6.75;;
21543;SDS011;10933;50.754;11.508;2023-09-18T04:31:43;6.65;;;6.32;;
21543;SDS011;10933;50.754;11.508;2023-09-18T04:34:10;6.68;;;6.38;;
21543;SDS011;10933;50.754;11.508;2023-09-18T04:36:36;7.80;;;7.28;;
21543;SDS011;10933;50.754;11.508;2023-09-18T04:39:03;7.80;;;7.00;;
21543;SDS011;10933;50.754;11.508;2023-09-18T04:41:30;7.15;;;6.75;;
21543;SDS011;10933;50.754;11.508;2023-09-18T04:43:56;7.03;;;6.53;;
21543;SDS011;10933;50.754;11.508;2023-09-18T04:46:23;6.82;;;6.43;;
21543;SDS011;10933;50.754;11.508;2023-09-18T04:48:49;6.22;;;5.85;;
21543;SDS011;10933;50.754;11.508;2023-09-18T04:51:16;6.88;;;6.55;;
21543;SDS011;10933;50.754;11.508;2023-09-18T04:53:42;10.48;;;6.20;;
21543;SDS011;10933;50.754;11.508;2023-09-18T04:56:08;7.05;;;6.47;;
21543;SDS011;10933;50.754;11.508;2023-09-18T04:58:37;6.85;;;6.45;;
21543;SDS011;10933;50.754;11.508;2023-09-18T05:01:04;7.45;;;7.05;;
21543;SDS011;10933;50.754;11.508;2023-09-18T05:03:34;9.75;;;7.35;;
21543;SDS011;10933;50.754;11.508;2023-09-18T05:06:01;11.57;;;10.63;;
21543;SDS011;10933;50.754;11.508;2023-09-18T05:08:30;8.05;;;7.65;;
21543;SDS011;10933;50.754;11.508;2023-09-18T05:10:56;9.00;;;8.40;;
21543;SDS011;10933;50.754;11.508;2023-09-18T05:13:22;8.60;;;7.90;;
21543;SDS011;10933;50.754;11.508;2023-09-18T05:15:49;7.55;;;6.95;;
21543;SDS011;10933;50.754;11.508;2023-09-18T05:18:15;6.47;;;6.03;;
21543;SDS011;10933;50.754;11.508;2023-09-18T05:20:41;6.43;;;6.03;;
21543;SDS011;10933;50.754;11.508;2023-09-18T05:23:07;6.43;;;6.07;;
21543;SDS011;10933;50.754;11.508;2023-09-18T05:25:34;7.55;;;7.15;;
21543;SDS011;10933;50.754;11.508;2023-09-18T05:28:03;7.63;;;7.22;;
21543;SDS011;10933;50.754;11.508;2023-09-18T05:30:31;8.80;;;8.40;;
21543;SDS011;10933;50.754;11.508;2023-09-18T05:32:59;9.20;;;8.65;;
21543;SDS011;10933;50.754;11.508;2023-09-18T05:35:30;9.05;;;7.88;;
21543;SDS011;10933;50.754;11.508;2023-09-18T05:37:57;6.85;;;6.55;;
21543;SDS011;10933;50.754;11.508;2023-09-18T05:40:23;8.07;;;7.32;;
21543;SDS011;10933;50.754;11.508;2023-09-18T05:42:53;6.80;;;6.30;;
21543;SDS011;10933;50.754;11.508;2023-09-18T05:45:20;6.80;;;6.40;;
21543;SDS011;10933;50.754;11.508;2023-09-18T05:47:47;6.60;;;6.20;;
21543;SDS011;10933;50.754;11.508;2023-09-18T05:50:14;6.25;;;5.95;;
21543;SDS011;10933;50.754;11.508;2023-09-18T05:52:42;6.68;;;6.15;;
21543;SDS011;10933;50.754;11.508;2023-09-18T05:55:09;6.07;;;5.78;;
21543;SDS011;10933;50.754;11.508;2023-09-18T05:57:35;7.80;;;7.30;;
21543;SDS011;10933;50.754;11.508;2023-09-18T06:00:02;8.10;;;7.70;;
21543;SDS011;10933;50.754;11.508;2023-09-18T06:02:28;8.18;;;7.65;;
21543;SDS011;10933;50.754;11.508;2023-09-18T06:04:55;7.80;;;7.40;;
21543;SDS011;10933;50.754;11.508;2023-09-18T06:07:23;7.10;;;6.60;;
21543;SDS011;10933;50.754;11.508;2023-09-18T06:09:49;7.55;;;7.22;;
21543;SDS011;10933;50.754;11.508;2023-09-18T06:12:15;7.68;;;7.28;;
21543;SDS011;10933;50.754;11.508;2023-09-18T06:14:41;6.90;;;6.60;;
21543;SDS011;10933;50.754;11.508;2023-09-18T06:17:08;6.55;;;6.25;;
21543;SDS011;10933;50.754;11.508;2023-09-18T06:19:34;6.95;;;6.65;;
21543;SDS011;10933;50.754;11.508;2023-09-18T06:22:01;9.40;;;8.88;;
21543;SDS011;10933;50.754;11.508;2023-09-18T06:24:27;8.40;;;8.00;;
21543;SDS011;10933;50.754;11.508;2023-09-18T06:26:53;8.13;;;7.63;;
21543;SDS011;10933;50.754;11.508;2023-09-18T06:29:19;8.23;;;7.57;;
21543;SDS011;10933;50.754;11.508;2023-09-18T06:31:46;6.95;;;6.47;;
21543;SDS011;10933;50.754;11.508;2023-09-18T06:34:12;7.00;;;6.70;;
21543;SDS011;10933;50.754;11.508;2023-09-18T06:36:38;6.85;;;6.47;;
21543;SDS011;10933;50.754;11.508;2023-09-18T06:39:05;7.57;;;7.05;;
21543;SDS011;10933;50.754;11.508;2023-09-18T06:41:31;7.07;;;6.60;;
21543;SDS011;10933;50.754;11.508;2023-09-18T06:43:57;6.55;;;6.25;;
21543;SDS011;10933;50.754;11.508;2023-09-18T06:46:24;8.10;;;7.35;;
21543;SDS011;10933;50.754;11.508;2023-09-18T06:48:51;7.70;;;7.13;;
21543;SDS011;10933;50.754;11.508;2023-09-18T06:51:17;7.35;;;6.95;;
21543;SDS011;10933;50.754;11.508;2023-09-18T06:53:43;7.00;;;6.60;;
21543;SDS011;10933;50.754;11.508;2023-09-18T06:56:10;7.30;;;7.00;;
21543;SDS011;10933;50.754;11.508;2023-09-18T06:58:37;7.35;;;6.95;;
21543;SDS011;10933;50.754;11.508;2023-09-18T07:01:03;8.52;;;7.88;;
21543;SDS011;10933;50.754;11.508;2023-09-18T07:03:31;10.05;;;9.43;;
21543;SDS011;10933;50.754;11.508;2023-09-18T07:05:59;8.50;;;7.80;;
21543;SDS011;10933;50.754;11.508;2023-09-18T07:08:25;10.00;;;8.95;;
21543;SDS011;10933;50.754;11.508;2023-09-18T07:10:52;9.85;;;9.07;;
21543;SDS011;10933;50.754;11.508;2023-09-18T07:13:18;9.70;;;8.70;;
21543;SDS011;10933;50.754;11.508;2023-09-18T07:15:44;8.30;;;7.43;;
21543;SDS011;10933;50.754;11.508;2023-09-18T07:18:10;7.25;;;6.85;;
21543;SDS011;10933;50.754;11.508;2023-09-18T07:20:39;7.05;;;6.65;;
21543;SDS011;10933;50.754;11.508;2023-09-18T07:23:06;6.55;;;6.15;;
21543;SDS011;10933;50.754;11.508;2023-09-18T07:25:32;5.95;;;5.65;;
21543;SDS011;10933;50.754;11.508;2023-09-18T07:27:58;6.15;;;5.85;;
21543;SDS011;10933;50.754;11.508;2023-09-18T07:30:24;5.88;;;5.47;;
21543;SDS011;10933;50.754;11.508;2023-09-18T07:32:54;6.90;;;6.60;;
21543;SDS011;10933;50.754;11.508;2023-09-18T07:35:26;6.95;;;6.65;;
21543;SDS011;10933;50.754;11.508;2023-09-18T07:37:52;7.68;;;7.25;;
21543;SDS011;10933;50.754;11.508;2023-09-18T07:40:19;7.32;;;6.97;;
21543;SDS011;10933;50.754;11.508;2023-09-18T07:42:46;9.38;;;8.23;;
21543;SDS011;10933;50.754;11.508;2023-09-18T07:45:12;9.50;;;8.73;;
21543;SDS011;10933;50.754;11.508;2023-09-18T07:47:38;6.70;;;6.35;;
21543;SDS011;10933;50.754;11.508;2023-09-18T07:50:05;7.10;;;6.70;;
21543;SDS011;10933;50.754;11.508;2023-09-18T07:52:31;7.25;;;6.88;;
21543;SDS011;10933;50.754;11.508;2023-09-18T07:54:57;6.35;;;6.05;;
21543;SDS011;10933;50.754;11.508;2023-09-18T07:57:24;7.82;;;7.10;;
21543;SDS011;10933;50.754;11.508;2023-09-18T07:59:53;5.90;;;5.60;;
21543;SDS011;10933;50.754;11.508;2023-09-18T08:02:19;6.43;;;6.13;;
21543;SDS011;10933;50.754;11.508;2023-09-18T08:04:46;7.05;;;6.25;;
21543;SDS011;10933;50.754;11.508;2023-09-18T08:07:13;6.50;;;6.10;;
21543;SDS011;10933;50.754;11.508;2023-09-18T08:09:39;7.00;;;6.30;;
21543;SDS011;10933;50.754;11.508;2023-09-18T08:12:05;6.80;;;6.30;;
21543;SDS011;10933;50.754;11.508;2023-09-18T08:14:33;6.78;;;6.40;;
21543;SDS011;10933;50.754;11.508;2023-09-18T08:17:03;5.65;;;5.35;;
21543;SDS011;10933;50.754;11.508;2023-09-18T08:19:29;6.60;;;6.30;;
21543;SDS011;10933;50.754;11.508;2023-09-18T08:21:58;6.72;;;6.32;;
21543;SDS011;10933;50.754;11.508;2023-09-18T08:24:25;7.03;;;6.72;;
21543;SDS011;10933;50.754;11.508;2023-09-18T08:26:51;6.72;;;6.22;;
21543;SDS011;10933;50.754;11.508;2023-09-18T08:29:18;6.97;;;6.53;;
21543;SDS011;10933;50.754;11.508;2023-09-18T08:31:44;6.10;;;5.80;;
21543;SDS011;10933;50.754;11.508;2023-09-18T08:34:11;6.78;;;6.47;;
21543;SDS011;10933;50.754;11.508;2023-09-18T08:36:37;10.77;;;9.02;;
21543;SDS011;10933;50.754;11.508;2023-09-18T08:39:03;9.93;;;9.43;;
21543;SDS011;10933;50.754;11.508;2023-09-18T08:41:33;7.15;;;6.30;;
21543;SDS011;10933;50.754;11.508;2023-09-18T08:44:03;6.32;;;6.03;;
21543;SDS011;10933;50.754;11.508;2023-09-18T08:46:34;7.85;;;7.45;;
21543;SDS011;10933;50.754;11.508;2023-09-18T08:49:01;7.80;;;7.20;;
21543;SDS011;10933;50.754;11.508;2023-09-18T08:51:29;5.88;;;5.68;;
21543;SDS011;10933;50.754;11.508;2023-09-18T08:53:55;8.07;;;7.03;;
21543;SDS011;10933;50.754;11.508;2023-09-18T08:56:22;6.72;;;6.43;;
21543;SDS011;10933;50.754;11.508;2023-09-18T08:58:48;5.82;;;5.53;;
21543;SDS011;10933;50.754;11.508;2023-09-18T09:01:15;5.93;;;5.45;;
21543;SDS011;10933;50.754;11.508;2023-09-18T09:03:41;5.07;;;4.88;;
21543;SDS011;10933;50.754;11.508;2023-09-18T09:06:11;5.20;;;4.93;;
21543;SDS011;10933;50.754;11.508;2023-09-18T09:08:37;5.78;;;5.47;;
21543;SDS011;10933;50.754;11.508;2023-09-18T09:11:04;6.05;;;5.57;;
21543;SDS011;10933;50.754;11.508;2023-09-18T09:13:30;5.00;;;4.80;;
21543;SDS011;10933;50.754;11.508;2023-09-18T09:15:58;6.28;;;5.63;;
21543;SDS011;10933;50.754;11.508;2023-09-18T09:18:25;5.32;;;4.90;;
21543;SDS011;10933;50.754;11.508;2023-09-18T09:20:53;5.45;;;5.05;;
21543;SDS011;10933;50.754;11.508;2023-09-18T09:23:23;9.73;;;5.60;;
21543;SDS011;10933;50.754;11.508;2023-09-18T09:25:50;4.53;;;4.32;;
21543;SDS011;10933;50.754;11.508;2023-09-18T09:28:16;5.97;;;5.60;;
21543;SDS011;10933;50.754;11.508;2023-09-18T09:31:04;5.55;;;4.95;;
21543;SDS011;10933;50.754;11.508;2023-09-18T09:33:31;15.18;;;5.35;;
21543;SDS011;10933;50.754;11.508;2023-09-18T09:35:57;4.88;;;4.57;;
21543;SDS011;10933;50.754;11.508;2023-09-18T09:38:30;4.63;;;4.38;;
21543;SDS011;10933;50.754;11.508;2023-09-18T09:40:58;4.70;;;4.50;;
21543;SDS011;10933;50.754;11.508;2023-09-18T09:43:32;5.38;;;5.18;;
21543;SDS011;10933;50.754;11.508;2023-09-18T09:46:01;4.93;;;4.65;;
21543;SDS011;10933;50.754;11.508;2023-09-18T09:48:28;4.70;;;4.43;;
21543;SDS011;10933;50.754;11.508;2023-09-18T09:50:59;5.00;;;4.80;;
21543;SDS011;10933;50.754;11.508;2023-09-18T09:53:45;4.70;;;4.50;;
21543;SDS011;10933;50.754;11.508;2023-09-18T09:56:13;4.85;;;4.50;;
21543;SDS011;10933;50.754;11.508;2023-09-18T09:58:40;5.03;;;4.65;;
21543;SDS011;10933;50.754;11.508;2023-09-18T10:01:09;5.20;;;5.00;;
21543;SDS011;10933;50.754;11.508;2023-09-18T10:03:42;5.43;;;5.13;;
21543;SDS011;10933;50.754;11.508;2023-09-18T10:06:09;4.95;;;4.68;;
21543;SDS011;10933;50.754;11.508;2023-09-18T10:08:39;5.15;;;4.22;;
21543;SDS011;10933;50.754;11.508;2023-09-18T10:11:07;4.55;;;4.35;;
21543;SDS011;10933;50.754;11.508;2023-09-18T10:16:24;5.50;;;4.40;;
21543;SDS011;10933;50.754;11.508;2023-09-18T10:24:19;5.85;;;5.35;;
21543;SDS011;10933;50.754;11.508;2023-09-18T10:27:00;5.72;;;5.10;;
21543;SDS011;10933;50.754;11.508;2023-09-18T10:29:30;5.18;;;4.75;;
21543;SDS011;10933;50.754;11.508;2023-09-18T10:32:04;5.35;;;5.05;;
21543;SDS011;10933;50.754;11.508;2023-09-18T10:34:33;5.32;;;4.95;;
21543;SDS011;10933;50.754;11.508;2023-09-18T10:37:00;6.05;;;5.53;;
21543;SDS011;10933;50.754;11.508;2023-09-18T10:39:31;6.53;;;5.95;;
21543;SDS011;10933;50.754;11.508;2023-09-18T10:42:01;6.75;;;6.32;;
21543;SDS011;10933;50.754;11.508;2023-09-18T10:44:30;5.10;;;4.70;;
21543;SDS011;10933;50.754;11.508;2023-09-18T10:46:59;4.45;;;4.25;;
21543;SDS011;10933;50.754;11.508;2023-09-18T10:49:28;4.65;;;4.35;;
21543;SDS011;10933;50.754;11.508;2023-09-18T10:51:55;4.55;;;4.32;;
21543;SDS011;10933;50.754;11.508;2023-09-18T10:54:23;5.07;;;4.57;;
21543;SDS011;10933;50.754;11.508;2023-09-18T10:56:50;5.15;;;4.85;;
21543;SDS011;10933;50.754;11.508;2023-09-18T10:59:17;4.78;;;4.38;;
21543;SDS011;10933;50.754;11.508;2023-09-18T11:01:45;4.75;;;4.40;;
21543;SDS011;10933;50.754;11.508;2023-09-18T11:04:13;4.63;;;4.32;;
21543;SDS011;10933;50.754;11.508;2023-09-18T11:09:22;5.18;;;4.82;;
21543;SDS011;10933;50.754;11.508;2023-09-18T11:11:52;4.68;;;4.28;;
21543;SDS011;10933;50.754;11.508;2023-09-18T11:14:22;5.43;;;4.30;;
21543;SDS011;10933;50.754;11.508;2023-09-18T11:17:05;5.38;;;4.93;;
21543;SDS011;10933;50.754;11.508;2023-09-18T11:19:31;8.52;;;4.60;;
21543;SDS011;10933;50.754;11.508;2023-09-18T11:22:07;11.88;;;5.15;;
21543;SDS011;10933;50.754;11.508;2023-09-18T11:24:35;5.82;;;5.22;;
21543;SDS011;10933;50.754;11.508;2023-09-18T11:27:01;4.90;;;4.60;;
21543;SDS011;10933;50.754;11.508;2023-09-18T11:29:28;6.28;;;5.88;;
21543;SDS011;10933;50.754;11.508;2023-09-18T11:31:57;4.63;;;4.32;;
21543;SDS011;10933;50.754;11.508;2023-09-18T11:34:23;5.75;;;4.10;;
21543;SDS011;10933;50.754;11.508;2023-09-18T11:36:56;3.38;;;3.17;;
21543;SDS011;10933;50.754;11.508;2023-09-18T11:42:08;4.10;;;3.03;;
21543;SDS011;10933;50.754;11.508;2023-09-18T11:44:36;3.33;;;2.78;;
21543;SDS011;10933;50.754;11.508;2023-09-18T11:47:07;3.47;;;2.65;;
21543;SDS011;10933;50.754;11.508;2023-09-18T11:49:39;3.25;;;2.30;;
21543;SDS011;10933;50.754;11.508;2023-09-18T11:52:12;2.00;;;1.80;;
21543;SDS011;10933;50.754;11.508;2023-09-18T11:54:39;4.32;;;2.08;;
21543;SDS011;10933;50.754;11.508;2023-09-18T11:57:06;2.22;;;2.00;;
21543;SDS011;10933;50.754;11.508;2023-09-18T11:59:39;5.15;;;2.30;;
21543;SDS011;10933;50.754;11.508;2023-09-18T12:02:08;3.80;;;2.10;;
21543;SDS011;10933;50.754;11.508;2023-09-18T12:04:56;2.03;;;1.80;;
21543;SDS011;10933;50.754;11.508;2023-09-18T12:07:23;2.33;;;1.80;;
21543;SDS011;10933;50.754;11.508;2023-09-18T12:09:49;2.20;;;2.00;;
21543;SDS011;10933;50.754;11.508;2023-09-18T12:12:16;5.03;;;1.85;;
21543;SDS011;10933;50.754;11.508;2023-09-18T12:14:42;2.97;;;2.25;;
21543;SDS011;10933;50.754;11.508;2023-09-18T12:17:12;3.20;;;2.88;;
21543;SDS011;10933;50.754;11.508;2023-09-18T12:19:50;2.85;;;2.60;;
21543;SDS011;10933;50.754;11.508;2023-09-18T12:22:26;2.78;;;2.03;;
21543;SDS011;10933;50.754;11.508;2023-09-18T12:24:53;3.35;;;3.00;;
21543;SDS011;10933;50.754;11.508;2023-09-18T12:27:35;4.35;;;2.50;;
21543;SDS011;10933;50.754;11.508;2023-09-18T12:30:02;3.08;;;1.80;;
21543;SDS011;10933;50.754;11.508;2023-09-18T12:32:30;2.00;;;1.77;;
21543;SDS011;10933;50.754;11.508;2023-09-18T12:34:57;2.63;;;1.40;;
21543;SDS011;10933;50.754;11.508;2023-09-18T12:37:23;3.53;;;1.67;;
21543;SDS011;10933;50.754;11.508;2023-09-18T12:39:50;3.60;;;1.40;;
21543;SDS011;10933;50.754;11.508;2023-09-18T12:42:17;3.65;;;1.50;;
21543;SDS011;10933;50.754;11.508;2023-09-18T12:44:47;3.72;;;1.50;;
21543;SDS011;10933;50.754;11.508;2023-09-18T12:47:14;2.72;;;1.58;;
21543;SDS011;10933;50.754;11.508;2023-09-18T12:49:41;4.57;;;1.48;;
21543;SDS011;10933;50.754;11.508;2023-09-18T12:52:07;2.72;;;1.60;;
21543;SDS011;10933;50.754;11.508;2023-09-18T12:57:06;3.08;;;1.48;;
21543;SDS011;10933;50.754;11.508;2023-09-18T12:59:34;5.03;;;1.60;;
21543;SDS011;10933;50.754;11.508;2023-09-18T13:02:02;2.42;;;1.73;;
21543;SDS011;10933;50.754;11.508;2023-09-18T13:04:35;2.95;;;1.45;;
21543;SDS011;10933;50.754;11.508;2023-09-18T13:07:12;2.05;;;1.63;;
21543;SDS011;10933;50.754;11.508;2023-09-18T13:09:39;1.50;;;1.20;;
21543;SDS011;10933;50.754;11.508;2023-09-18T13:12:06;1.45;;;1.33;;
21543;SDS011;10933;50.754;11.508;2023-09-18T13:14:56;2.53;;;1.17;;
21543;SDS011;10933;50.754;11.508;2023-09-18T13:17:25;5.25;;;1.33;;
21543;SDS011;10933;50.754;11.508;2023-09-18T13:19:52;2.90;;;1.50;;
21543;SDS011;10933;50.754;11.508;2023-09-18T13:22:22;3.95;;;1.40;;
21543;SDS011;10933;50.754;11.508;2023-09-18T13:24:54;1.77;;;1.17;;
21543;SDS011;10933;50.754;11.508;2023-09-18T13:27:21;4.47;;;1.58;;
21543;SDS011;10933;50.754;11.508;2023-09-18T13:29:48;2.47;;;1.30;;
21543;SDS011;10933;50.754;11.508;2023-09-18T13:32:16;2.58;;;1.20;;
21543;SDS011;10933;50.754;11.508;2023-09-18T13:34:42;2.13;;;1.20;;
21543;SDS011;10933;50.754;11.508;2023-09-18T13:37:10;3.15;;;1.30;;
21543;SDS011;10933;50.754;11.508;2023-09-18T13:39:36;2.45;;;1.40;;
21543;SDS011;10933;50.754;11.508;2023-09-18T13:42:02;2.75;;;1.20;;
21543;SDS011;10933;50.754;11.508;2023-09-18T13:44:28;2.40;;;1.20;;
21543;SDS011;10933;50.754;11.508;2023-09-18T13:46:54;3.58;;;1.05;;
21543;SDS011;10933;50.754;11.508;2023-09-18T13:49:20;1.63;;;1.00;;
21543;SDS011;10933;50.754;11.508;2023-09-18T13:51:48;1.65;;;1.00;;
21543;SDS011;10933;50.754;11.508;2023-09-18T13:54:15;3.45;;;1.15;;
21543;SDS011;10933;50.754;11.508;2023-09-18T13:56:41;1.92;;;1.73;;
21543;SDS011;10933;50.754;11.508;2023-09-18T13:59:08;3.90;;;1.00;;
21543;SDS011;10933;50.754;11.508;2023-09-18T14:01:35;2.45;;;1.50;;
21543;SDS011;10933;50.754;11.508;2023-09-18T14:04:01;1.45;;;1.30;;
21543;SDS011;10933;50.754;11.508;2023-09-18T14:06:27;2.75;;;1.30;;
21543;SDS011;10933;50.754;11.508;2023-09-18T14:08:53;1.83;;;1.10;;
21543;SDS011;10933;50.754;11.508;2023-09-18T14:11:19;2.88;;;1.30;;
21543;SDS011;10933;50.754;11.508;2023-09-18T14:13:46;2.08;;;1.23;;
21543;SDS011;10933;50.754;11.508;2023-09-18T14:16:12;2.03;;;1.10;;
21543;SDS011;10933;50.754;11.508;2023-09-18T14:18:39;2.13;;;1.35;;
21543;SDS011;10933;50.754;11.508;2023-09-18T14:21:05;2.63;;;2.03;;
21543;SDS011;10933;50.754;11.508;2023-09-18T14:23:31;1.90;;;1.20;;
21543;SDS011;10933;50.754;11.508;2023-09-18T14:25:59;1.55;;;1.10;;
21543;SDS011;10933;50.754;11.508;2023-09-18T14:28:25;2.35;;;2.08;;
21543;SDS011;10933;50.754;11.508;2023-09-18T14:30:52;3.72;;;1.35;;
21543;SDS011;10933;50.754;11.508;2023-09-18T14:33:18;2.25;;;0.95;;
21543;SDS011;10933;50.754;11.508;2023-09-18T14:35:44;1.95;;;1.00;;
21543;SDS011;10933;50.754;11.508;2023-09-18T14:38:11;1.80;;;1.05;;
21543;SDS011;10933;50.754;11.508;2023-09-18T14:40:40;1.98;;;0.98;;
21543;SDS011;10933;50.754;11.508;2023-09-18T14:43:07;1.65;;;1.20;;
21543;SDS011;10933;50.754;11.508;2023-09-18T14:45:33;1.33;;;0.80;;
21543;SDS011;10933;50.754;11.508;2023-09-18T14:48:00;3.60;;;0.88;;
21543;SDS011;10933;50.754;11.508;2023-09-18T14:50:26;3.88;;;1.08;;
21543;SDS011;10933;50.754;11.508;2023-09-18T14:52:52;2.03;;;1.10;;
21543;SDS011;10933;50.754;11.508;2023-09-18T14:55:18;1.80;;;0.85;;